Time;durP1;ratioP1;P1;durP2;ratioP2;P2;SDS_P1;SDS_P2;PMS_P1;PMS_P2;Temp;Humidity;BMP_temperature;BMP_pressure;BME280_temperature;BME280_humidity;BME280_pressure;Samples;Min_cycle;Max_cycle;Signal;HPM_P1;HPM_P2
2022/07/30 00:01:03;;;;;;;16.55;3.97;;;;;;;17.00;91.08;101790.22;4996546;28;20057;-74
2022/07/30 00:03:28;;;;;;;10.15;3.65;;;;;;;17.03;90.82;101795.06;4995213;28;20058;-75
2022/07/30 00:05:54;;;;;;;10.15;3.72;;;;;;;17.04;90.59;101793.25;4994992;28;20386;-74
2022/07/30 00:08:21;;;;;;;10.98;4.00;;;;;;;16.96;90.59;101788.25;4996236;28;20022;-74
2022/07/30 00:10:46;;;;;;;10.63;3.78;;;;;;;16.92;91.22;101782.66;4995278;28;20394;-74
2022/07/30 00:13:12;;;;;;;9.85;4.00;;;;;;;17.02;91.98;101792.66;4995838;28;20113;-75
2022/07/30 00:15:37;;;;;;;8.88;4.32;;;;;;;16.90;91.72;101790.66;4996691;28;20097;-75
2022/07/30 00:18:02;;;;;;;17.17;4.43;;;;;;;16.91;91.78;101783.63;4995604;28;20105;-73
2022/07/30 00:20:28;;;;;;;10.20;4.03;;;;;;;16.96;90.95;101786.44;4996824;28;20050;-73
2022/07/30 00:22:53;;;;;;;14.55;4.53;;;;;;;16.82;91.26;101775.22;4995826;28;20030;-73
2022/07/30 00:25:19;;;;;;;9.15;3.88;;;;;;;16.79;91.84;101767.00;4997072;28;20029;-74
2022/07/30 00:27:44;;;;;;;14.38;3.97;;;;;;;16.89;91.27;101772.63;4995933;28;20018;-73
2022/07/30 00:30:11;;;;;;;10.77;4.20;;;;;;;16.78;91.54;101770.63;4996501;28;20440;-74
2022/07/30 00:32:36;;;;;;;9.50;4.10;;;;;;;16.84;91.19;101777.63;4999364;28;20613;-74
2022/07/30 00:35:02;;;;;;;10.48;4.35;;;;;;;16.55;92.04;101764.00;5001492;28;20105;-75
2022/07/30 00:37:27;;;;;;;9.35;4.53;;;;;;;16.70;91.81;101766.38;5001216;28;20037;-75
2022/07/30 00:39:52;;;;;;;12.35;4.32;;;;;;;16.65;91.96;101769.59;5002053;28;20469;-74
2022/07/30 00:42:24;;;;;;;19.70;5.05;;;;;;;16.50;93.17;101766.41;5002175;28;20030;-73
2022/07/30 00:44:52;;;;;;;15.55;4.32;;;;;;;16.60;92.59;101761.59;5004443;28;20027;-73
2022/07/30 00:47:18;;;;;;;12.75;4.82;;;;;;;16.62;92.56;101761.38;5003279;28;20029;-74
2022/07/30 00:49:44;;;;;;;9.90;4.38;;;;;;;16.51;92.83;101749.75;5004048;28;20084;-74
2022/07/30 00:52:09;;;;;;;8.45;4.45;;;;;;;16.42;92.90;101759.56;5003398;28;20086;-74
2022/07/30 00:54:34;;;;;;;9.57;4.70;;;;;;;16.41;93.24;101757.97;5006894;28;20034;-75
2022/07/30 00:57:00;;;;;;;8.90;4.45;;;;;;;16.57;93.55;101764.59;5011206;28;20033;-75
2022/07/30 00:59:27;;;;;;;14.10;4.93;;;;;;;16.43;92.76;101753.38;5010261;28;20034;-75
2022/07/30 01:01:53;;;;;;;14.20;5.70;;;;;;;16.37;94.20;101761.19;5009195;28;20026;-74
2022/07/30 01:04:18;;;;;;;8.40;4.50;;;;;;;16.40;93.54;101764.22;5010450;28;20026;-76
2022/07/30 01:06:44;;;;;;;11.65;4.85;;;;;;;16.38;94.00;101761.00;5011275;28;20545;-74
2022/07/30 01:09:09;;;;;;;14.20;5.47;;;;;;;16.43;92.83;101763.00;5010325;28;20034;-75
2022/07/30 01:11:37;;;;;;;10.60;4.45;;;;;;;16.31;93.72;101756.78;5022836;28;20470;-74
2022/07/30 01:14:05;;;;;;;14.60;5.10;;;;;;;16.37;93.65;101758.56;4998306;28;20096;-74
2022/07/30 01:16:30;;;;;;;13.85;4.85;;;;;;;16.28;94.71;101762.41;4996798;28;20398;-73
2022/07/30 01:21:48;;;;;;;10.30;5.20;;;;;;;16.22;93.72;101750.97;4996325;28;20057;-74
2022/07/30 01:24:34;;;;;;;10.18;4.50;;;;;;;16.27;94.09;101761.59;4996440;28;20034;-74
2022/07/30 01:27:01;;;;;;;11.50;4.75;;;;;;;16.38;93.46;101763.59;4995534;28;20385;-73
2022/07/30 01:29:29;;;;;;;10.52;4.70;;;;;;;16.27;93.12;101760.81;4995492;28;20030;-74
2022/07/30 01:31:58;;;;;;;14.70;4.95;;;;;;;16.11;93.87;101760.19;4995475;28;20049;-73
2022/07/30 01:34:28;;;;;;;9.32;4.55;;;;;;;16.10;94.65;101763.78;4995395;28;20482;-73
2022/07/30 01:36:56;;;;;;;11.20;4.70;;;;;;;16.17;93.93;101758.56;4995161;28;20457;-73
2022/07/30 01:39:24;;;;;;;9.23;4.68;;;;;;;16.17;94.67;101764.63;4995071;28;20482;-73
2022/07/30 01:41:51;;;;;;;9.70;4.70;;;;;;;16.16;94.00;101765.59;4993523;28;20018;-73
2022/07/30 01:44:17;;;;;;;11.75;4.43;;;;;;;16.10;94.91;101758.56;4994968;28;20109;-76
2022/07/30 01:46:43;;;;;;;11.27;4.53;;;;;;;16.07;94.55;101764.19;4995532;28;20105;-77
2022/07/30 01:49:10;;;;;;;12.70;4.50;;;;;;;15.98;94.71;101760.97;4993614;28;20450;-77
2022/07/30 01:51:37;;;;;;;12.73;5.20;;;;;;;16.01;95.44;101752.75;4993716;28;20025;-77
2022/07/30 01:54:06;;;;;;;17.20;4.72;;;;;;;16.04;94.91;101766.41;4993389;28;20026;-76
2022/07/30 01:56:31;;;;;;;11.45;5.13;;;;;;;15.94;95.17;101758.94;4994760;28;20037;-77
2022/07/30 01:58:58;;;;;;;10.73;5.38;;;;;;;16.06;95.51;101759.19;4993567;28;20431;-77
2022/07/30 02:01:24;;;;;;;10.35;4.90;;;;;;;16.11;95.04;101761.97;4994690;28;20086;-76
2022/07/30 02:03:49;;;;;;;11.95;4.97;;;;;;;16.16;94.64;101757.78;4994704;28;20030;-77
2022/07/30 02:06:25;;;;;;;8.77;4.80;;;;;;;16.09;94.22;101750.97;4993237;28;20102;-76
2022/07/30 02:08:57;;;;;;;14.30;5.20;;;;;;;16.00;94.33;101751.16;4994625;28;20552;-76
2022/07/30 02:14:16;;;;;;;10.60;5.28;;;;;;;15.88;94.98;101757.97;4994538;28;20449;-77
2022/07/30 02:16:48;;;;;;;10.50;4.90;;;;;;;15.88;94.85;101755.38;4994169;28;20033;-77
2022/07/30 02:19:15;;;;;;;17.20;5.77;;;;;;;15.92;94.77;101755.75;4992724;28;20026;-77
2022/07/30 02:21:54;;;;;;;7.47;4.70;;;;;;;15.90;94.58;101760.34;4992894;28;20088;-77
2022/07/30 02:24:26;;;;;;;12.40;5.07;;;;;;;15.80;95.49;101755.53;4992989;28;20035;-77
2022/07/30 02:26:59;;;;;;;11.48;4.90;;;;;;;15.87;94.88;101751.13;4992857;28;20062;-77
2022/07/30 02:29:25;;;;;;;13.43;4.72;;;;;;;15.89;94.57;101763.97;4993084;28;20113;-77
2022/07/30 02:31:53;;;;;;;9.65;4.88;;;;;;;15.75;94.60;101756.13;4992923;28;20577;-77
2022/07/30 02:34:23;;;;;;;10.48;5.28;;;;;;;15.76;95.04;101762.13;4994193;28;20496;-77
2022/07/30 02:36:50;;;;;;;13.85;5.20;;;;;;;15.78;95.33;101749.72;4994164;28;20026;-77
2022/07/30 02:39:17;;;;;;;11.40;4.90;;;;;;;15.89;95.02;101754.34;4992797;28;20034;-77
2022/07/30 02:41:43;;;;;;;9.60;4.55;;;;;;;15.91;94.46;101760.19;4994088;28;20030;-77
2022/07/30 02:44:10;;;;;;;9.23;4.63;;;;;;;15.81;94.44;101754.53;4992887;28;20069;-76
2022/07/30 02:46:38;;;;;;;14.85;5.20;;;;;;;15.82;94.85;101766.56;4992710;28;20393;-77
2022/07/30 02:49:05;;;;;;;12.65;5.18;;;;;;;15.70;95.03;101763.72;4992810;28;20019;-77
2022/07/30 02:51:32;;;;;;;11.35;5.63;;;;;;;15.79;95.06;101761.72;4994003;28;20022;-77
2022/07/30 02:54:00;;;;;;;13.90;5.55;;;;;;;15.71;94.99;101751.53;4992880;28;20032;-77
2022/07/30 02:56:27;;;;;;;11.13;5.60;;;;;;;15.73;95.35;101771.16;4992810;28;20030;-77
2022/07/30 02:58:55;;;;;;;11.63;5.78;;;;;;;15.68;95.04;101770.94;4992674;28;20026;-77
2022/07/30 03:01:22;;;;;;;10.10;6.03;;;;;;;15.56;95.39;101764.66;4992529;28;20065;-77
2022/07/30 03:03:49;;;;;;;11.10;6.57;;;;;;;15.52;96.27;101760.84;4993923;28;20026;-77
2022/07/30 03:06:16;;;;;;;12.45;6.65;;;;;;;15.48;96.31;101763.03;4993856;28;20050;-76
2022/07/30 03:08:44;;;;;;;15.10;7.10;;;;;;;15.46;96.39;101759.81;4992637;28;20037;-77
2022/07/30 03:11:11;;;;;;;13.05;7.60;;;;;;;15.49;96.26;101761.22;4992578;28;20026;-77
2022/07/30 03:13:36;;;;;;;10.68;7.72;;;;;;;15.50;96.46;101761.03;4993944;28;20359;-77
2022/07/30 03:16:05;;;;;;;14.90;8.05;;;;;;;15.41;95.67;101756.19;4992366;28;20022;-77
2022/07/30 03:18:33;;;;;;;16.13;8.30;;;;;;;15.37;96.34;101763.59;4993668;28;20225;-78
2022/07/30 03:21:00;;;;;;;14.32;8.57;;;;;;;15.32;96.94;101765.97;4992279;28;20042;-77
2022/07/30 03:23:26;;;;;;;14.80;7.72;;;;;;;15.31;96.77;101766.97;4993601;28;20478;-77
2022/07/30 03:26:02;;;;;;;13.70;8.43;;;;;;;15.32;96.27;101769.38;4993678;28;20375;-77
2022/07/30 03:28:35;;;;;;;14.93;8.45;;;;;;;15.32;96.45;101764.16;4994151;28;20047;-77
2022/07/30 03:31:01;;;;;;;19.38;8.75;;;;;;;15.27;96.29;101763.94;4994102;28;20023;-77
2022/07/30 03:33:28;;;;;;;18.30;8.20;;;;;;;15.24;96.07;101761.72;4992397;28;20085;-77
2022/07/30 03:35:54;;;;;;;15.52;8.55;;;;;;;15.27;96.00;101763.94;4992231;28;20030;-77
2022/07/30 03:38:20;;;;;;;15.90;8.50;;;;;;;15.18;95.51;101765.09;4992421;28;20054;-77
2022/07/30 03:40:46;;;;;;;15.20;8.40;;;;;;;15.14;96.42;101758.69;4993646;28;20057;-77
2022/07/30 03:43:13;;;;;;;12.95;8.50;;;;;;;15.15;96.58;101762.09;4995843;28;20054;-77
2022/07/30 03:45:42;;;;;;;14.82;8.52;;;;;;;15.09;97.24;101761.88;4996508;28;20103;-77
2022/07/30 03:48:10;;;;;;;14.20;8.73;;;;;;;15.07;96.71;101763.84;4995669;28;20029;-78
2022/07/30 03:50:37;;;;;;;13.80;9.10;;;;;;;15.07;96.68;101773.47;4995694;28;20486;-77
2022/07/30 03:53:04;;;;;;;17.60;9.43;;;;;;;15.07;96.74;101766.44;4996947;28;20030;-77
2022/07/30 03:55:30;;;;;;;16.95;8.77;;;;;;;15.07;96.48;101765.66;4995753;28;20105;-77
2022/07/30 03:57:55;;;;;;;16.00;9.30;;;;;;;15.02;96.32;101755.84;4995664;28;20113;-77
2022/07/30 04:00:21;;;;;;;16.90;8.70;;;;;;;15.15;96.11;101772.50;4996742;28;20096;-78
2022/07/30 04:02:46;;;;;;;16.98;9.35;;;;;;;15.18;95.96;101772.91;4995588;28;20092;-77
2022/07/30 04:05:13;;;;;;;14.65;8.68;;;;;;;15.28;95.49;101773.38;4995549;28;20413;-77
2022/07/30 04:07:39;;;;;;;18.35;9.55;;;;;;;15.18;95.38;101780.72;4996756;28;20526;-78
2022/07/30 04:10:07;;;;;;;16.50;9.80;;;;;;;15.02;96.09;101776.66;4995240;28;20106;-78
2022/07/30 04:12:32;;;;;;;19.75;9.57;;;;;;;15.07;97.03;101776.06;4995320;28;20485;-77
2022/07/30 04:14:58;;;;;;;19.58;9.35;;;;;;;15.05;97.08;101781.47;4995419;28;20098;-78
2022/07/30 04:17:30;;;;;;;16.30;9.15;;;;;;;15.06;96.31;101780.47;4996492;28;20046;-78
2022/07/30 04:20:01;;;;;;;14.85;8.95;;;;;;;15.13;95.91;101777.91;4996483;28;20129;-76
2022/07/30 04:22:31;;;;;;;15.60;9.65;;;;;;;15.16;96.39;101781.91;4995010;28;20030;-76
2022/07/30 04:24:58;;;;;;;17.38;9.40;;;;;;;15.19;95.09;101784.97;4996417;28;20038;-76
2022/07/30 04:27:24;;;;;;;16.70;9.15;;;;;;;15.18;95.72;101785.13;4994969;28;20125;-77
2022/07/30 04:29:51;;;;;;;12.40;9.00;;;;;;;15.18;95.80;101788.53;4996238;28;20026;-78
2022/07/30 04:32:18;;;;;;;16.65;9.38;;;;;;;15.29;95.57;101787.19;4994810;28;20169;-77
2022/07/30 04:34:51;;;;;;;16.73;9.32;;;;;;;15.40;94.49;101794.47;4996760;28;20031;-77
2022/07/30 04:37:21;;;;;;;15.68;8.43;;;;;;;15.44;94.20;101793.06;4996977;28;20025;-76
2022/07/30 04:39:48;;;;;;;16.65;9.15;;;;;;;15.34;95.26;101796.03;5011066;28;20027;-76
2022/07/30 04:42:14;;;;;;;15.88;9.32;;;;;;;15.45;94.27;101804.28;4995324;28;20022;-76
2022/07/30 04:44:40;;;;;;;15.98;8.85;;;;;;;15.40;95.18;101804.09;4994879;28;20129;-77
2022/07/30 04:47:05;;;;;;;15.00;8.77;;;;;;;15.52;94.42;101798.13;4994636;28;20383;-77
2022/07/30 04:49:32;;;;;;;14.40;8.60;;;;;;;15.66;94.94;101790.34;4996274;28;20034;-77
2022/07/30 04:51:58;;;;;;;17.67;8.57;;;;;;;15.73;93.46;101794.59;4994795;28;20026;-78
2022/07/30 04:54:24;;;;;;;16.42;8.35;;;;;;;15.68;93.49;101793.56;4994787;28;20030;-77
2022/07/30 04:56:51;;;;;;;16.40;7.88;;;;;;;15.59;94.12;101798.13;4995784;28;20113;-77
2022/07/30 04:59:17;;;;;;;16.00;8.30;;;;;;;15.66;94.24;101793.75;4994364;28;20054;-77
2022/07/30 05:01:48;;;;;;;12.05;7.65;;;;;;;15.65;94.23;101788.72;4995797;28;20493;-77
2022/07/30 05:04:15;;;;;;;15.45;7.53;;;;;;;15.64;95.20;101785.31;4994267;28;20450;-78
2022/07/30 05:06:41;;;;;;;11.20;7.30;;;;;;;15.79;94.05;101800.81;4994434;28;20022;-77
2022/07/30 05:09:07;;;;;;;11.85;7.35;;;;;;;15.83;94.73;101796.03;4995328;28;20037;-78
2022/07/30 05:11:32;;;;;;;11.70;7.00;;;;;;;16.10;94.52;101796.88;4994243;28;20053;-77
2022/07/30 05:13:58;;;;;;;13.63;7.00;;;;;;;16.11;93.27;101803.69;4994083;28;20053;-79
2022/07/30 05:16:23;;;;;;;12.43;6.53;;;;;;;16.31;93.51;101804.53;4994106;28;20062;-78
2022/07/30 05:18:49;;;;;;;16.23;7.10;;;;;;;16.26;92.29;101798.31;4994058;28;20502;-78
2022/07/30 05:21:16;;;;;;;12.05;6.78;;;;;;;16.30;92.58;101808.13;4995197;28;20042;-78
2022/07/30 05:23:41;;;;;;;15.45;6.50;;;;;;;16.44;92.73;101804.53;4994217;28;20045;-78
2022/07/30 05:26:06;;;;;;;11.00;6.43;;;;;;;16.52;91.38;101808.75;4995033;28;20031;-78
2022/07/30 05:28:32;;;;;;;13.73;6.60;;;;;;;16.58;91.69;101813.16;4993879;28;20026;-78
2022/07/30 05:30:57;;;;;;;10.00;6.20;;;;;;;16.58;90.87;101818.38;4995042;28;20085;-78
2022/07/30 05:33:22;;;;;;;17.88;6.53;;;;;;;16.60;90.94;101816.38;4994874;28;20030;-79
2022/07/30 05:35:48;;;;;;;17.35;6.47;;;;;;;16.72;90.24;101815.78;4995084;28;20122;-78
2022/07/30 05:38:14;;;;;;;13.32;6.20;;;;;;;16.87;89.91;101822.41;4993506;28;20018;-77
2022/07/30 05:40:40;;;;;;;11.75;6.20;;;;;;;17.07;89.13;101818.97;4993559;28;20022;-77
2022/07/30 05:43:05;;;;;;;13.05;5.82;;;;;;;17.12;88.54;101825.19;4994989;28;20069;-77
2022/07/30 05:45:31;;;;;;;12.85;5.90;;;;;;;17.08;88.43;101837.03;4995063;28;20172;-76
2022/07/30 05:47:56;;;;;;;9.70;5.28;;;;;;;17.01;88.68;101838.06;4994724;28;20030;-77
2022/07/30 05:50:22;;;;;;;12.75;5.60;;;;;;;17.09;89.06;101833.44;4993520;28;20036;-77
2022/07/30 05:52:47;;;;;;;12.02;5.53;;;;;;;17.19;88.10;101835.59;4994699;28;20386;-77
2022/07/30 05:55:13;;;;;;;14.18;5.53;;;;;;;17.33;88.39;101845.00;4993395;28;20026;-77
2022/07/30 05:57:40;;;;;;;12.55;5.57;;;;;;;17.41;87.83;101843.19;4994748;28;20030;-77
2022/07/30 06:00:08;;;;;;;9.90;4.43;;;;;;;21.80;71.82;101849.13;4994655;28;20030;-78
2022/07/30 06:02:33;;;;;;;9.63;4.00;;;;;;;27.34;50.10;101840.09;4993381;28;20088;-78
2022/07/30 06:04:58;;;;;;;9.85;3.55;;;;;;;29.05;44.68;101833.78;4994134;28;20485;-78
2022/07/30 06:07:24;;;;;;;8.52;3.55;;;;;;;29.42;42.54;101843.66;4993115;28;20113;-79
2022/07/30 06:09:49;;;;;;;6.20;2.92;;;;;;;30.33;40.58;101840.63;4993036;28;20049;-79
2022/07/30 06:12:14;;;;;;;5.50;2.90;;;;;;;30.04;40.77;101843.50;4994284;28;20029;-79
2022/07/30 06:14:40;;;;;;;6.70;2.80;;;;;;;30.03;40.37;101836.59;4994333;28;20305;-79
2022/07/30 06:17:05;;;;;;;13.85;3.20;;;;;;;30.10;40.15;101846.88;4994194;28;20101;-79
2022/07/30 06:19:30;;;;;;;7.47;2.67;;;;;;;30.05;39.75;101838.97;4992739;28;20036;-81
2022/07/30 06:21:56;;;;;;;12.23;2.67;;;;;;;29.57;40.46;101844.50;4994302;28;20058;-80
2022/07/30 06:24:21;;;;;;;7.40;2.63;;;;;;;31.03;38.82;101847.53;4993850;28;20129;-81
2022/07/30 06:26:46;;;;;;;6.90;2.67;;;;;;;31.12;37.62;101839.59;4994252;28;20301;-80
2022/07/30 06:29:12;;;;;;;15.23;2.57;;;;;;;31.03;37.32;101844.06;4994213;28;20289;-80
2022/07/30 06:31:38;;;;;;;9.10;2.47;;;;;;;31.39;36.59;101838.75;4993955;28;20277;-80
2022/07/30 06:34:04;;;;;;;9.10;2.60;;;;;;;32.58;35.34;101845.41;4992803;28;20028;-82
2022/07/30 06:36:29;;;;;;;7.93;2.28;;;;;;;32.42;35.10;101844.22;4993956;28;20101;-80
2022/07/30 06:38:54;;;;;;;11.65;2.70;;;;;;;32.92;34.28;101842.00;4994022;28;20088;-80
2022/07/30 06:41:20;;;;;;;6.63;2.50;;;;;;;31.54;36.19;101842.94;4992791;28;20121;-79
2022/07/30 06:43:45;;;;;;;8.30;2.20;;;;;;;32.70;33.64;101836.78;4993996;28;20277;-80
2022/07/30 06:46:10;;;;;;;8.93;2.50;;;;;;;32.02;34.84;101839.63;4994056;28;20500;-80
2022/07/30 06:48:36;;;;;;;7.83;2.20;;;;;;;32.00;35.07;101833.03;4992689;28;20022;-80
2022/07/30 06:51:01;;;;;;;9.77;2.20;;;;;;;31.81;35.00;101836.66;4993957;28;20751;-80
2022/07/30 06:53:27;;;;;;;5.28;1.90;;;;;;;31.95;34.35;101841.19;4992492;28;20158;-79
2022/07/30 06:55:52;;;;;;;10.38;2.28;;;;;;;32.08;34.20;101841.09;4992539;28;20022;-77
2022/07/30 06:58:17;;;;;;;5.15;1.95;;;;;;;31.23;34.87;101835.59;4992760;28;20030;-78
2022/07/30 07:00:43;;;;;;;10.50;2.43;;;;;;;25.01;48.06;101839.88;4993688;28;20022;-77
2022/07/30 07:03:11;;;;;;;10.80;2.20;;;;;;;23.01;53.71;101842.59;4992687;28;20637;-77
2022/07/30 07:05:37;;;;;;;7.10;2.10;;;;;;;28.75;41.87;101851.69;4993183;28;20029;-77
2022/07/30 07:08:03;;;;;;;6.00;2.25;;;;;;;31.59;34.82;101839.34;4993925;28;20030;-77
2022/07/30 07:10:28;;;;;;;11.55;2.45;;;;;;;25.08;47.97;101848.34;4993766;28;20030;-77
2022/07/30 07:12:54;;;;;;;6.35;2.40;;;;;;;22.76;55.21;101843.84;4993910;28;20109;-77
2022/07/30 07:15:20;;;;;;;9.13;2.70;;;;;;;22.34;57.67;101848.75;4993743;28;20033;-77
2022/07/30 07:17:46;;;;;;;8.40;2.33;;;;;;;22.02;57.73;101850.03;4996260;28;20022;-76
2022/07/30 07:20:11;;;;;;;7.63;2.40;;;;;;;28.63;41.24;101853.13;4997443;28;20056;-76
2022/07/30 07:22:36;;;;;;;5.60;1.88;;;;;;;25.10;44.99;101854.19;4997656;28;20552;-76
2022/07/30 07:25:02;;;;;;;7.57;2.00;;;;;;;21.86;56.41;101854.22;4996227;28;20026;-76
2022/07/30 07:27:28;;;;;;;5.78;2.00;;;;;;;24.54;49.99;101850.22;4997436;28;20034;-77
2022/07/30 07:29:53;;;;;;;7.95;2.10;;;;;;;24.59;48.04;101854.72;4996126;28;20072;-77
2022/07/30 07:32:18;;;;;;;7.28;1.90;;;;;;;24.48;48.27;101847.78;4997082;28;20034;-77
2022/07/30 07:34:43;;;;;;;5.55;2.08;;;;;;;22.46;54.49;101844.19;4997239;28;20022;-78
2022/07/30 07:37:09;;;;;;;6.55;1.90;;;;;;;23.79;51.58;101857.22;4997211;28;20089;-77
2022/07/30 07:39:34;;;;;;;6.35;1.73;;;;;;;24.26;49.26;101856.59;4995791;28;20026;-77
2022/07/30 07:41:59;;;;;;;6.85;2.05;;;;;;;24.31;48.86;101855.81;4996997;28;20466;-77
2022/07/30 07:44:24;;;;;;;4.90;1.75;;;;;;;24.17;48.78;101854.63;4997156;28;20030;-77
2022/07/30 07:46:50;;;;;;;5.32;1.80;;;;;;;25.05;47.23;101864.75;4997065;28;20022;-77
2022/07/30 07:49:15;;;;;;;7.68;1.85;;;;;;;24.60;47.79;101869.53;4996800;28;20035;-77
2022/07/30 07:51:40;;;;;;;4.35;1.77;;;;;;;24.94;46.83;101862.03;4995621;28;20026;-77
2022/07/30 07:54:05;;;;;;;4.65;1.70;;;;;;;24.59;46.96;101867.91;4996702;28;20117;-77
2022/07/30 07:56:32;;;;;;;6.87;1.70;;;;;;;24.79;45.96;101861.19;4995730;28;20056;-76
2022/07/30 07:58:57;;;;;;;4.32;1.70;;;;;;;24.76;46.14;101863.28;4995551;28;20273;-76
2022/07/30 08:01:23;;;;;;;4.82;1.70;;;;;;;24.15;47.25;101862.81;4995523;28;20026;-77
2022/07/30 08:03:48;;;;;;;4.18;1.65;;;;;;;24.42;46.64;101854.03;4996850;28;20394;-76
2022/07/30 08:06:13;;;;;;;7.68;1.67;;;;;;;24.74;45.06;101854.00;4996485;28;20034;-76
2022/07/30 08:08:39;;;;;;;5.07;1.60;;;;;;;25.14;44.95;101850.78;4996530;28;20025;-77
2022/07/30 08:11:06;;;;;;;7.45;1.80;;;;;;;25.05;45.29;101847.03;4995181;28;20485;-76
2022/07/30 08:13:32;;;;;;;4.45;1.42;;;;;;;25.29;44.13;101857.19;4996506;28;20117;-76
2022/07/30 08:15:58;;;;;;;6.38;1.88;;;;;;;25.45;43.61;101845.59;4996558;28;20438;-77
2022/07/30 08:18:24;;;;;;;3.15;1.60;;;;;;;25.15;42.60;101855.03;4996310;28;20022;-77
2022/07/30 08:20:50;;;;;;;5.00;1.60;;;;;;;25.18;42.89;101859.00;4996164;28;20513;-77
2022/07/30 08:23:16;;;;;;;6.18;1.50;;;;;;;24.95;43.25;101850.44;4996405;28;20458;-77
2022/07/30 08:25:42;;;;;;;5.43;1.50;;;;;;;25.30;42.30;101850.84;4994998;28;20036;-77
2022/07/30 08:28:07;;;;;;;2.60;1.50;;;;;;;25.54;42.64;101857.25;4996629;28;20109;-77
2022/07/30 08:30:33;;;;;;;4.68;2.05;;;;;;;25.73;42.22;101848.84;4995100;28;20022;-77
2022/07/30 08:32:58;;;;;;;4.20;1.60;;;;;;;26.23;42.17;101852.56;4996226;28;20034;-77
2022/07/30 08:35:23;;;;;;;4.83;1.57;;;;;;;26.34;41.97;101854.94;4996056;28;20158;-77
2022/07/30 08:37:48;;;;;;;4.50;1.70;;;;;;;26.07;42.46;101857.88;4994881;28;20272;-77
2022/07/30 08:40:17;;;;;;;5.10;2.00;;;;;;;26.29;42.66;101854.16;4995970;28;20030;-77
2022/07/30 08:42:42;;;;;;;4.50;2.30;;;;;;;26.25;42.81;101850.47;4994975;28;20023;-77
2022/07/30 08:45:11;;;;;;;6.30;1.80;;;;;;;25.87;43.95;101853.38;4995910;28;20025;-77
2022/07/30 08:47:39;;;;;;;6.57;1.73;;;;;;;25.83;44.51;101849.66;4995832;28;20029;-77
2022/07/30 08:50:07;;;;;;;6.88;1.98;;;;;;;26.34;43.95;101852.28;4995595;28;20105;-77
2022/07/30 08:52:35;;;;;;;5.10;2.08;;;;;;;26.31;44.08;101855.47;4994466;28;20034;-75
2022/07/30 08:55:01;;;;;;;8.38;2.03;;;;;;;26.43;44.47;101852.53;4995606;28;20033;-78
2022/07/30 08:57:30;;;;;;;4.78;2.03;;;;;;;25.30;45.59;101849.00;4994301;28;20023;-77
2022/07/30 08:59:57;;;;;;;6.25;1.70;;;;;;;24.37;47.87;101851.34;4995608;28;20375;-77
2022/07/30 09:02:22;;;;;;;6.55;2.20;;;;;;;25.10;46.59;101846.25;4995447;28;20053;-77
2022/07/30 09:04:48;;;;;;;7.05;2.08;;;;;;;25.83;45.15;101860.25;4995568;28;20517;-77
2022/07/30 09:07:13;;;;;;;5.85;2.00;;;;;;;26.34;43.45;101864.75;4994127;28;20054;-77
2022/07/30 09:09:38;;;;;;;4.28;1.80;;;;;;;26.33;44.47;101869.25;4995344;28;20026;-77
2022/07/30 09:12:37;;;;;;;6.65;2.40;;;;;;;25.80;44.70;101875.84;4995433;28;20026;-78
2022/07/30 09:15:05;;;;;;;6.45;2.10;;;;;;;26.19;43.96;101883.31;4994158;28;20105;-78
2022/07/30 09:17:54;;;;;;;6.18;1.98;;;;;;;26.79;42.66;101879.03;4995410;28;20390;-78
2022/07/30 09:20:23;;;;;;;4.70;1.88;;;;;;;26.43;43.36;101883.56;4994998;28;20082;-76
2022/07/30 09:22:54;;;;;;;4.32;2.00;;;;;;;26.82;42.05;101875.03;4993822;28;20031;-76
2022/07/30 09:25:32;;;;;;;5.93;2.03;;;;;;;27.06;41.68;101875.22;4995207;28;20136;-76
2022/07/30 09:27:58;;;;;;;8.80;1.90;;;;;;;26.46;42.79;101880.38;4995017;28;20053;-76
2022/07/30 09:30:23;;;;;;;7.30;2.00;;;;;;;26.21;43.87;101879.34;4993665;28;20065;-76
2022/07/30 09:32:53;;;;;;;3.88;1.80;;;;;;;26.61;42.12;101882.22;4993604;28;20034;-76
2022/07/30 09:35:20;;;;;;;6.07;1.75;;;;;;;26.21;43.02;101871.41;4995048;28;20062;-77
2022/07/30 09:37:46;;;;;;;4.72;2.10;;;;;;;27.32;40.22;101876.72;4995071;28;20037;-77
2022/07/30 09:40:14;;;;;;;4.75;1.70;;;;;;;27.56;40.08;101879.50;4993095;28;20026;-77
2022/07/30 09:42:40;;;;;;;4.35;1.70;;;;;;;27.22;40.33;101863.50;4994625;28;20030;-77
2022/07/30 09:45:08;;;;;;;5.93;1.70;;;;;;;27.77;40.02;101877.50;4993460;28;20029;-77
2022/07/30 09:47:36;;;;;;;5.18;1.65;;;;;;;27.11;40.04;101868.03;4993323;28;20121;-77
2022/07/30 09:50:11;;;;;;;5.80;1.60;;;;;;;27.27;39.53;101871.44;4994574;28;20564;-77
2022/07/30 09:52:39;;;;;;;6.13;1.98;;;;;;;27.06;40.27;101864.59;4994703;28;20022;-77
2022/07/30 09:55:05;;;;;;;3.95;1.65;;;;;;;27.96;38.93;101863.59;4993151;28;20473;-77
2022/07/30 09:57:30;;;;;;;8.95;1.75;;;;;;;27.73;38.73;101868.50;4993354;28;20077;-77
2022/07/30 09:59:57;;;;;;;5.82;1.80;;;;;;;28.26;38.33;101851.91;4994467;28;20026;-77
2022/07/30 10:02:30;;;;;;;4.63;1.70;;;;;;;28.04;38.08;101857.69;4992834;28;20030;-77
2022/07/30 10:05:14;;;;;;;4.28;2.00;;;;;;;27.82;39.37;101850.13;4994003;28;20026;-77
2022/07/30 10:07:47;;;;;;;4.18;1.67;;;;;;;27.34;39.62;101853.34;4994184;28;20113;-77
2022/07/30 10:10:12;;;;;;;7.88;1.77;;;;;;;27.86;38.71;101841.34;4994229;28;20633;-77
2022/07/30 10:12:38;;;;;;;7.07;2.00;;;;;;;27.53;39.68;101847.41;4992935;28;20117;-77
2022/07/30 10:15:05;;;;;;;5.88;1.73;;;;;;;28.84;37.24;101853.72;4994287;28;20026;-78
2022/07/30 10:17:32;;;;;;;6.57;2.00;;;;;;;28.64;36.64;101855.53;4992775;28;20022;-77
2022/07/30 10:19:58;;;;;;;5.22;1.80;;;;;;;29.08;36.59;101841.19;4994034;28;20065;-78
2022/07/30 10:22:23;;;;;;;5.07;1.70;;;;;;;28.53;37.19;101846.06;4994195;28;20128;-77
2022/07/30 10:24:49;;;;;;;10.73;1.73;;;;;;;28.40;36.64;101838.72;4992765;28;20092;-77
2022/07/30 10:27:15;;;;;;;4.30;1.80;;;;;;;28.29;36.34;101843.38;4992156;28;20080;-77
2022/07/30 10:29:41;;;;;;;6.38;1.90;;;;;;;28.96;35.94;101846.91;4992732;28;20049;-77
2022/07/30 10:32:06;;;;;;;3.63;1.95;;;;;;;28.13;37.45;101861.31;4993941;28;20031;-77
2022/07/30 10:34:32;;;;;;;4.93;1.63;;;;;;;28.24;37.66;101856.72;4993492;28;20478;-77
2022/07/30 10:37:01;;;;;;;4.28;1.80;;;;;;;28.26;37.27;101843.94;4994111;28;20022;-78
2022/07/30 10:39:34;;;;;;;3.15;1.63;;;;;;;28.04;37.85;101855.81;4993931;28;20027;-77
2022/07/30 10:42:29;;;;;;;9.13;1.70;;;;;;;27.27;39.42;101850.19;4992942;28;20053;-76
2022/07/30 10:45:22;;;;;;;5.82;1.90;;;;;;;28.25;37.72;101847.66;4993862;28;20481;-77
2022/07/30 10:47:50;;;;;;;5.70;1.60;;;;;;;27.86;38.55;101861.81;4992481;28;20026;-77
2022/07/30 10:50:25;;;;;;;4.85;2.03;;;;;;;28.60;38.08;101862.50;4993693;28;20032;-77
2022/07/30 10:52:56;;;;;;;3.58;1.88;;;;;;;28.71;36.75;101858.63;4995836;28;20029;-77
2022/07/30 10:55:33;;;;;;;4.32;1.90;;;;;;;27.52;38.52;101851.13;4996550;28;20509;-78
2022/07/30 10:58:08;;;;;;;11.60;1.70;;;;;;;27.68;38.64;101863.25;4996582;28;20109;-77
2022/07/30 11:00:55;;;;;;;4.85;1.83;;;;;;;26.71;40.16;101859.16;4997690;28;20544;-76
2022/07/30 11:03:25;;;;;;;5.13;2.00;;;;;;;27.40;38.83;101864.75;5002552;28;20030;-76
2022/07/30 11:06:15;;;;;;;5.00;1.80;;;;;;;26.83;39.28;101866.81;4996040;28;20022;-76
2022/07/30 11:08:44;;;;;;;6.55;1.83;;;;;;;27.82;38.56;101858.09;4996141;28;20371;-76
2022/07/30 11:11:29;;;;;;;4.63;1.88;;;;;;;27.86;38.17;101867.91;4997463;28;20026;-73
2022/07/30 11:13:57;;;;;;;3.47;1.75;;;;;;;28.76;35.90;101860.44;4990190;28;20056;-73
2022/07/30 11:16:43;;;;;;;3.90;1.70;;;;;;;28.34;36.83;101864.59;4997400;28;20023;-73
2022/07/30 11:19:17;;;;;;;4.18;1.60;;;;;;;28.65;36.57;101859.75;5002116;28;20402;-73
2022/07/30 11:21:44;;;;;;;6.78;1.80;;;;;;;28.08;36.58;101856.84;4999147;28;20038;-72
2022/07/30 11:24:42;;;;;;;5.05;1.70;;;;;;;27.80;37.06;101850.44;4995966;28;20033;-73
2022/07/30 11:27:07;;;;;;;7.82;1.48;;;;;;;28.99;35.81;101850.88;4997057;28;20521;-73
2022/07/30 11:29:35;;;;;;;3.55;1.55;;;;;;;29.22;34.96;101846.59;4995796;28;20034;-73